sensor_id;sensor_type;location;lat;lon;timestamp;pressure;altitude;pressure_sealevel;temperature;humidity
46199;BME280;31928;52.104;10.030;2022-12-31T00:02:02;99493.41;;;14.42;60.85
46199;BME280;31928;52.104;10.030;2022-12-31T00:04:29;99500.34;;;14.33;61.82
46199;BME280;31928;52.104;10.030;2022-12-31T00:06:56;99486.53;;;14.65;59.92
46199;BME280;31928;52.104;10.030;2022-12-31T00:09:23;99509.31;;;14.43;61.40
46199;BME280;31928;52.104;10.030;2022-12-31T00:11:49;99495.25;;;14.41;61.86
46199;BME280;31928;52.104;10.030;2022-12-31T00:14:16;99489.88;;;14.41;62.25
46199;BME280;31928;52.104;10.030;2022-12-31T00:16:42;99494.47;;;14.41;62.48
46199;BME280;31928;52.104;10.030;2022-12-31T00:19:10;99490.97;;;14.45;61.94
46199;BME280;31928;52.104;10.030;2022-12-31T00:21:37;99497.19;;;14.45;62.08
46199;BME280;31928;52.104;10.030;2022-12-31T00:24:05;99523.34;;;14.45;62.19
46199;BME280;31928;52.104;10.030;2022-12-31T00:26:33;99502.88;;;14.49;61.96
46199;BME280;31928;52.104;10.030;2022-12-31T00:29:00;99499.94;;;14.50;61.90
46199;BME280;31928;52.104;10.030;2022-12-31T00:31:29;99502.06;;;14.48;62.14
46199;BME280;31928;52.104;10.030;2022-12-31T00:33:57;99498.84;;;14.51;62.13
46199;BME280;31928;52.104;10.030;2022-12-31T00:36:33;99498.38;;;14.59;61.71
46199;BME280;31928;52.104;10.030;2022-12-31T00:39:01;99499.97;;;14.55;62.09
46199;BME280;31928;52.104;10.030;2022-12-31T00:41:28;99498.88;;;14.56;62.08
46199;BME280;31928;52.104;10.030;2022-12-31T00:43:55;99498.38;;;14.59;61.96
46199;BME280;31928;52.104;10.030;2022-12-31T00:46:22;99494.59;;;14.60;62.11
46199;BME280;31928;52.104;10.030;2022-12-31T00:48:49;99507.00;;;14.61;62.19
46199;BME280;31928;52.104;10.030;2022-12-31T00:51:19;99502.19;;;14.63;62.25
46199;BME280;31928;52.104;10.030;2022-12-31T00:53:46;99495.69;;;14.64;61.89
46199;BME280;31928;52.104;10.030;2022-12-31T00:56:15;99505.06;;;14.93;60.45
46199;BME280;31928;52.104;10.030;2022-12-31T00:58:43;99518.69;;;14.72;61.69
46199;BME280;31928;52.104;10.030;2022-12-31T01:03:42;99512.47;;;14.71;61.58
46199;BME280;31928;52.104;10.030;2022-12-31T01:06:09;99519.50;;;14.72;61.87
46199;BME280;31928;52.104;10.030;2022-12-31T01:08:36;99518.63;;;15.03;60.11
46199;BME280;31928;52.104;10.030;2022-12-31T01:11:03;99517.13;;;14.81;61.42
46199;BME280;31928;52.104;10.030;2022-12-31T01:13:45;99508.22;;;14.80;61.89
46199;BME280;31928;52.104;10.030;2022-12-31T01:16:13;99523.34;;;14.81;61.87
46199;BME280;31928;52.104;10.030;2022-12-31T01:18:40;99515.00;;;14.83;62.16
46199;BME280;31928;52.104;10.030;2022-12-31T01:21:07;99533.78;;;15.14;59.24
46199;BME280;31928;52.104;10.030;2022-12-31T01:23:35;99527.19;;;14.90;61.75
46199;BME280;31928;52.104;10.030;2022-12-31T01:26:03;99532.59;;;14.90;62.03
46199;BME280;31928;52.104;10.030;2022-12-31T01:28:30;99552.53;;;14.89;62.52
46199;BME280;31928;52.104;10.030;2022-12-31T01:30:56;99544.06;;;15.17;60.70
46199;BME280;31928;52.104;10.030;2022-12-31T01:33:23;99546.09;;;14.95;62.22
46199;BME280;31928;52.104;10.030;2022-12-31T01:35:50;99535.56;;;14.94;62.29
46199;BME280;31928;52.104;10.030;2022-12-31T01:38:16;99526.03;;;15.22;59.97
46199;BME280;31928;52.104;10.030;2022-12-31T01:40:43;99522.91;;;14.99;62.11
46199;BME280;31928;52.104;10.030;2022-12-31T01:43:18;99528.31;;;15.04;61.37
46199;BME280;31928;52.104;10.030;2022-12-31T01:45:48;99525.63;;;14.99;62.21
46199;BME280;31928;52.104;10.030;2022-12-31T01:48:23;99519.38;;;14.99;62.21
46199;BME280;31928;52.104;10.030;2022-12-31T01:50:52;99511.56;;;14.97;62.22
46199;BME280;31928;52.104;10.030;2022-12-31T01:53:20;99518.03;;;14.96;62.62
46199;BME280;31928;52.104;10.030;2022-12-31T01:55:53;99524.53;;;15.00;61.98
46199;BME280;31928;52.104;10.030;2022-12-31T01:58:27;99513.22;;;15.03;62.28
46199;BME280;31928;52.104;10.030;2022-12-31T02:00:56;99518.06;;;15.01;62.27
46199;BME280;31928;52.104;10.030;2022-12-31T02:03:25;99505.63;;;15.00;62.27
46199;BME280;31928;52.104;10.030;2022-12-31T02:08:35;99522.91;;;15.04;62.70
46199;BME280;31928;52.104;10.030;2022-12-31T02:11:23;99511.66;;;15.17;61.43
46199;BME280;31928;52.104;10.030;2022-12-31T02:13:50;99525.66;;;15.09;62.45
46199;BME280;31928;52.104;10.030;2022-12-31T02:16:40;99500.06;;;15.16;61.85
46199;BME280;31928;52.104;10.030;2022-12-31T02:21:58;99508.41;;;15.15;62.50
46199;BME280;31928;52.104;10.030;2022-12-31T02:24:36;99487.34;;;15.17;62.28
46199;BME280;31928;52.104;10.030;2022-12-31T02:30:17;99486.38;;;15.28;61.76
46199;BME280;31928;52.104;10.030;2022-12-31T02:35:45;99478.31;;;15.38;61.43
46199;BME280;31928;52.104;10.030;2022-12-31T02:38:20;99487.47;;;15.32;61.94
46199;BME280;31928;52.104;10.030;2022-12-31T02:40:47;99479.34;;;15.27;62.46
46199;BME280;31928;52.104;10.030;2022-12-31T02:43:14;99473.97;;;15.32;61.93
46199;BME280;31928;52.104;10.030;2022-12-31T02:45:42;99482.69;;;15.59;61.38
46199;BME280;31928;52.104;10.030;2022-12-31T02:50:45;99460.50;;;15.42;61.89
46199;BME280;31928;52.104;10.030;2022-12-31T02:56:13;99465.91;;;15.47;61.89
46199;BME280;31928;52.104;10.030;2022-12-31T02:59:00;99467.53;;;15.53;61.54
46199;BME280;31928;52.104;10.030;2022-12-31T03:01:52;99469.16;;;15.54;61.91
46199;BME280;31928;52.104;10.030;2022-12-31T03:05:06;99458.66;;;15.62;62.80
46199;BME280;31928;52.104;10.030;2022-12-31T03:07:35;99470.78;;;15.55;62.74
46199;BME280;31928;52.104;10.030;2022-12-31T03:10:01;99471.06;;;15.53;63.54
46199;BME280;31928;52.104;10.030;2022-12-31T03:12:30;99474.03;;;15.57;63.31
46199;BME280;31928;52.104;10.030;2022-12-31T03:15:22;99466.50;;;15.63;63.14
46199;BME280;31928;52.104;10.030;2022-12-31T03:17:50;99471.09;;;15.58;63.83
46199;BME280;31928;52.104;10.030;2022-12-31T03:20:17;99457.31;;;15.60;63.81
46199;BME280;31928;52.104;10.030;2022-12-31T03:23:05;99455.13;;;15.62;63.93
46199;BME280;31928;52.104;10.030;2022-12-31T03:25:32;99445.94;;;15.63;63.74
46199;BME280;31928;52.104;10.030;2022-12-31T03:28:14;99444.88;;;15.68;64.09
46199;BME280;31928;52.104;10.030;2022-12-31T03:30:44;99434.09;;;15.68;63.76
46199;BME280;31928;52.104;10.030;2022-12-31T03:33:12;99443.25;;;15.67;64.07
46199;BME280;31928;52.104;10.030;2022-12-31T03:35:40;99440.56;;;15.72;64.01
46199;BME280;31928;52.104;10.030;2022-12-31T03:38:07;99439.75;;;15.72;64.53
46199;BME280;31928;52.104;10.030;2022-12-31T03:40:41;99405.97;;;15.79;63.55
46199;BME280;31928;52.104;10.030;2022-12-31T03:43:08;99425.97;;;15.73;64.21
46199;BME280;31928;52.104;10.030;2022-12-31T03:45:35;99416.78;;;15.74;64.28
46199;BME280;31928;52.104;10.030;2022-12-31T03:48:03;99427.06;;;15.77;64.49
46199;BME280;31928;52.104;10.030;2022-12-31T03:50:31;99414.63;;;15.76;64.64
46199;BME280;31928;52.104;10.030;2022-12-31T03:52:58;99407.03;;;15.78;64.65
46199;BME280;31928;52.104;10.030;2022-12-31T03:55:24;99400.84;;;15.83;64.35
46199;BME280;31928;52.104;10.030;2022-12-31T03:57:51;99397.59;;;15.86;64.12
46199;BME280;31928;52.104;10.030;2022-12-31T04:00:19;99393.03;;;15.86;64.61
46199;BME280;31928;52.104;10.030;2022-12-31T04:02:48;99407.59;;;15.85;64.72
46199;BME280;31928;52.104;10.030;2022-12-31T04:05:16;99385.44;;;15.88;64.43
46199;BME280;31928;52.104;10.030;2022-12-31T04:07:43;99384.66;;;15.93;64.45
46199;BME280;31928;52.104;10.030;2022-12-31T04:10:12;99410.59;;;15.84;64.75
46199;BME280;31928;52.104;10.030;2022-12-31T04:12:39;99375.44;;;15.99;64.02
46199;BME280;31928;52.104;10.030;2022-12-31T04:15:07;99376.50;;;16.03;64.09
46199;BME280;31928;52.104;10.030;2022-12-31T04:17:34;99373.56;;;16.04;64.28
46199;BME280;31928;52.104;10.030;2022-12-31T04:20:02;99385.97;;;16.10;63.74
46199;BME280;31928;52.104;10.030;2022-12-31T04:22:28;99376.50;;;16.13;64.21
46199;BME280;31928;52.104;10.030;2022-12-31T04:24:55;99365.13;;;16.40;62.96
46199;BME280;31928;52.104;10.030;2022-12-31T04:27:22;99370.81;;;16.24;63.29
46199;BME280;31928;52.104;10.030;2022-12-31T04:29:48;99368.06;;;16.54;61.71
46199;BME280;31928;52.104;10.030;2022-12-31T04:32:15;99363.25;;;16.31;63.33
46199;BME280;31928;52.104;10.030;2022-12-31T04:34:41;99360.81;;;16.34;63.39
46199;BME280;31928;52.104;10.030;2022-12-31T04:37:08;99369.72;;;16.40;63.23
46199;BME280;31928;52.104;10.030;2022-12-31T04:39:35;99355.38;;;16.39;63.30
46199;BME280;31928;52.104;10.030;2022-12-31T04:42:02;99360.00;;;16.39;63.26
46199;BME280;31928;52.104;10.030;2022-12-31T04:44:28;99360.97;;;16.73;61.90
46199;BME280;31928;52.104;10.030;2022-12-31T04:46:55;99370.75;;;16.54;62.67
46199;BME280;31928;52.104;10.030;2022-12-31T04:49:22;99376.72;;;16.56;62.66
46199;BME280;31928;52.104;10.030;2022-12-31T04:51:48;99384.16;;;16.88;61.37
46199;BME280;31928;52.104;10.030;2022-12-31T04:54:15;99367.19;;;16.68;62.18
46199;BME280;31928;52.104;10.030;2022-12-31T04:56:41;99366.38;;;16.73;62.31
46199;BME280;31928;52.104;10.030;2022-12-31T04:59:08;99358.78;;;16.75;62.06
46199;BME280;31928;52.104;10.030;2022-12-31T05:01:35;99375.56;;;16.77;62.23
46199;BME280;31928;52.104;10.030;2022-12-31T05:04:02;99389.88;;;16.82;61.90
46199;BME280;31928;52.104;10.030;2022-12-31T05:06:29;99369.44;;;17.14;60.54
46199;BME280;31928;52.104;10.030;2022-12-31T05:08:55;99366.28;;;16.92;61.74
46199;BME280;31928;52.104;10.030;2022-12-31T05:11:22;99351.50;;;17.23;60.35
46199;BME280;31928;52.104;10.030;2022-12-31T05:13:48;99362.44;;;17.03;61.52
46199;BME280;31928;52.104;10.030;2022-12-31T05:16:15;99390.50;;;17.27;60.51
46199;BME280;31928;52.104;10.030;2022-12-31T05:18:42;99366.25;;;17.02;61.45
46199;BME280;31928;52.104;10.030;2022-12-31T05:21:08;99368.53;;;17.34;60.39
46199;BME280;31928;52.104;10.030;2022-12-31T05:23:35;99377.06;;;17.07;61.48
46199;BME280;31928;52.104;10.030;2022-12-31T05:26:01;99382.88;;;17.39;60.19
46199;BME280;31928;52.104;10.030;2022-12-31T05:28:28;99372.69;;;17.11;61.25
46199;BME280;31928;52.104;10.030;2022-12-31T05:30:55;99378.47;;;17.48;60.24
46199;BME280;31928;52.104;10.030;2022-12-31T05:33:21;99391.06;;;17.24;60.74
46199;BME280;31928;52.104;10.030;2022-12-31T05:35:48;99377.78;;;17.28;60.58
46199;BME280;31928;52.104;10.030;2022-12-31T05:38:15;99385.09;;;17.27;61.00
46199;BME280;31928;52.104;10.030;2022-12-31T05:40:42;99397.38;;;17.58;60.06
46199;BME280;31928;52.104;10.030;2022-12-31T05:43:08;99401.88;;;17.34;60.78
46199;BME280;31928;52.104;10.030;2022-12-31T05:45:35;99394.59;;;17.68;60.11
46199;BME280;31928;52.104;10.030;2022-12-31T05:48:01;99395.81;;;17.47;60.47
46199;BME280;31928;52.104;10.030;2022-12-31T05:50:28;99389.94;;;17.73;59.97
46199;BME280;31928;52.104;10.030;2022-12-31T05:52:55;99398.78;;;17.50;60.14
46199;BME280;31928;52.104;10.030;2022-12-31T05:55:22;99433.19;;;17.50;60.26
46199;BME280;31928;52.104;10.030;2022-12-31T05:57:49;99411.50;;;17.55;60.44
46199;BME280;31928;52.104;10.030;2022-12-31T06:00:15;99419.41;;;17.85;59.81
46199;BME280;31928;52.104;10.030;2022-12-31T06:02:42;99424.47;;;17.58;60.68
46199;BME280;31928;52.104;10.030;2022-12-31T06:05:08;99436.22;;;17.87;59.89
46199;BME280;31928;52.104;10.030;2022-12-31T06:07:35;99434.69;;;17.71;60.42
46199;BME280;31928;52.104;10.030;2022-12-31T06:10:02;99441.22;;;17.70;61.06
46199;BME280;31928;52.104;10.030;2022-12-31T06:12:29;99434.97;;;17.69;60.62
46199;BME280;31928;52.104;10.030;2022-12-31T06:14:55;99458.00;;;17.72;60.64
46199;BME280;31928;52.104;10.030;2022-12-31T06:17:22;99453.13;;;17.74;60.94
46199;BME280;31928;52.104;10.030;2022-12-31T06:19:48;99463.75;;;18.04;59.70
46199;BME280;31928;52.104;10.030;2022-12-31T06:22:15;99472.59;;;17.81;61.74
46199;BME280;31928;52.104;10.030;2022-12-31T06:24:41;99472.59;;;17.81;61.66
46199;BME280;31928;52.104;10.030;2022-12-31T06:27:08;99473.66;;;17.80;62.14
46199;BME280;31928;52.104;10.030;2022-12-31T06:29:34;99477.28;;;18.08;60.10
46199;BME280;31928;52.104;10.030;2022-12-31T06:32:01;99485.63;;;17.79;62.40
46199;BME280;31928;52.104;10.030;2022-12-31T06:34:30;99488.38;;;17.74;62.86
46199;BME280;31928;52.104;10.030;2022-12-31T06:36:57;99479.69;;;17.72;62.69
46199;BME280;31928;52.104;10.030;2022-12-31T06:39:24;99477.84;;;17.67;63.00
46199;BME280;31928;52.104;10.030;2022-12-31T06:41:51;99472.69;;;17.66;62.84
46199;BME280;31928;52.104;10.030;2022-12-31T06:44:17;99459.97;;;17.61;63.04
46199;BME280;31928;52.104;10.030;2022-12-31T06:46:44;99461.09;;;17.94;60.65
46199;BME280;31928;52.104;10.030;2022-12-31T06:49:11;99464.03;;;17.64;62.70
46199;BME280;31928;52.104;10.030;2022-12-31T06:51:37;99473.03;;;17.93;60.45
46199;BME280;31928;52.104;10.030;2022-12-31T06:54:04;99472.72;;;17.61;62.55
46199;BME280;31928;52.104;10.030;2022-12-31T06:56:30;99469.03;;;17.90;60.62
46199;BME280;31928;52.104;10.030;2022-12-31T06:59:01;99464.03;;;17.59;62.13
46199;BME280;31928;52.104;10.030;2022-12-31T07:07:33;99461.78;;;17.71;61.52
46199;BME280;31928;52.104;10.030;2022-12-31T07:21:08;99475.88;;;17.78;60.92
46199;BME280;31928;52.104;10.030;2022-12-31T07:23:36;99481.28;;;17.78;60.82
46199;BME280;31928;52.104;10.030;2022-12-31T07:26:10;99474.50;;;17.80;60.34
46199;BME280;31928;52.104;10.030;2022-12-31T07:34:05;99473.50;;;18.05;59.68
46199;BME280;31928;52.104;10.030;2022-12-31T07:42:24;99484.13;;;18.39;59.22
46199;BME280;31928;52.104;10.030;2022-12-31T07:44:54;99487.97;;;18.62;58.85
46199;BME280;31928;52.104;10.030;2022-12-31T07:47:26;99495.50;;;18.41;58.40
46199;BME280;31928;52.104;10.030;2022-12-31T07:49:54;99479.44;;;18.45;58.01
46199;BME280;31928;52.104;10.030;2022-12-31T07:52:21;99498.16;;;18.46;57.57
46199;BME280;31928;52.104;10.030;2022-12-31T07:54:48;99523.38;;;18.52;57.89
46199;BME280;31928;52.104;10.030;2022-12-31T07:57:15;99500.22;;;18.87;57.41
46199;BME280;31928;52.104;10.030;2022-12-31T08:05:27;99525.53;;;18.83;57.04
46199;BME280;31928;52.104;10.030;2022-12-31T08:13:27;99532.25;;;18.90;56.09
46199;BME280;31928;52.104;10.030;2022-12-31T08:15:54;99530.28;;;18.96;55.89
46199;BME280;31928;52.104;10.030;2022-12-31T08:18:20;99510.63;;;19.04;55.83
46199;BME280;31928;52.104;10.030;2022-12-31T08:20:54;99533.69;;;19.11;55.57
46199;BME280;31928;52.104;10.030;2022-12-31T08:23:28;99538.47;;;19.42;55.79
46199;BME280;31928;52.104;10.030;2022-12-31T08:26:22;99552.28;;;19.28;55.32
46199;BME280;31928;52.104;10.030;2022-12-31T08:29:07;99545.94;;;19.32;55.54
46199;BME280;31928;52.104;10.030;2022-12-31T08:34:27;99560.03;;;19.39;55.32
46199;BME280;31928;52.104;10.030;2022-12-31T08:37:11;99566.16;;;19.49;55.70
46199;BME280;31928;52.104;10.030;2022-12-31T08:40:06;99555.56;;;19.48;55.48
46199;BME280;31928;52.104;10.030;2022-12-31T08:45:34;99575.41;;;19.48;55.67
46199;BME280;31928;52.104;10.030;2022-12-31T08:48:24;99561.69;;;19.58;55.72
46199;BME280;31928;52.104;10.030;2022-12-31T08:50:53;99575.22;;;19.40;55.83
46199;BME280;31928;52.104;10.030;2022-12-31T08:53:20;99582.03;;;19.37;56.14
46199;BME280;31928;52.104;10.030;2022-12-31T08:55:57;99585.00;;;19.41;55.94
46199;BME280;31928;52.104;10.030;2022-12-31T08:58:47;99591.78;;;19.43;55.98
46199;BME280;31928;52.104;10.030;2022-12-31T09:01:20;99583.66;;;19.38;56.56
46199;BME280;31928;52.104;10.030;2022-12-31T09:06:49;99570.91;;;19.39;56.34
46199;BME280;31928;52.104;10.030;2022-12-31T09:12:18;99592.56;;;19.44;56.03
46199;BME280;31928;52.104;10.030;2022-12-31T09:15:14;99594.03;;;19.36;55.90
46199;BME280;31928;52.104;10.030;2022-12-31T09:17:46;99599.50;;;19.31;55.44
46199;BME280;31928;52.104;10.030;2022-12-31T09:20:23;99596.75;;;19.36;55.92
46199;BME280;31928;52.104;10.030;2022-12-31T09:22:53;99604.38;;;19.34;55.63
46199;BME280;31928;52.104;10.030;2022-12-31T09:25:21;99617.97;;;19.34;54.99
46199;BME280;31928;52.104;10.030;2022-12-31T09:28:13;99599.97;;;19.38;54.61
46199;BME280;31928;52.104;10.030;2022-12-31T09:30:57;99598.59;;;19.41;54.73
46199;BME280;31928;52.104;10.030;2022-12-31T09:33:31;99598.59;;;19.41;54.83
46199;BME280;31928;52.104;10.030;2022-12-31T09:36:06;99607.97;;;19.53;55.11
46199;BME280;31928;52.104;10.030;2022-12-31T09:38:47;99616.63;;;19.55;54.64
46199;BME280;31928;52.104;10.030;2022-12-31T09:52:24;99603.91;;;19.74;53.31
46199;BME280;31928;52.104;10.030;2022-12-31T10:00:52;99608.06;;;19.90;52.70
46199;BME280;31928;52.104;10.030;2022-12-31T10:06:10;99607.47;;;19.98;52.62
46199;BME280;31928;52.104;10.030;2022-12-31T10:11:36;99623.13;;;20.06;52.06
46199;BME280;31928;52.104;10.030;2022-12-31T10:22:43;99597.25;;;20.27;51.85
46199;BME280;31928;52.104;10.030;2022-12-31T10:25:29;99587.75;;;20.24;51.38
46199;BME280;31928;52.104;10.030;2022-12-31T10:30:47;99602.63;;;20.32;51.59
46199;BME280;31928;52.104;10.030;2022-12-31T10:33:41;99607.13;;;20.41;52.07
46199;BME280;31928;52.104;10.030;2022-12-31T10:36:17;99596.81;;;20.38;51.93
46199;BME280;31928;52.104;10.030;2022-12-31T10:38:54;99603.66;;;20.36;51.72
46199;BME280;31928;52.104;10.030;2022-12-31T10:47:21;99608.00;;;20.37;51.20
46199;BME280;31928;52.104;10.030;2022-12-31T10:50:15;99611.16;;;20.44;51.78
46199;BME280;31928;52.104;10.030;2022-12-31T10:56:26;99592.31;;;20.47;50.73
46199;BME280;31928;52.104;10.030;2022-12-31T11:11:12;99647.97;;;20.41;49.44
46199;BME280;31928;52.104;10.030;2022-12-31T11:19:50;99646.84;;;20.60;49.44
46199;BME280;31928;52.104;10.030;2022-12-31T11:30:28;99654.31;;;20.73;49.50
46199;BME280;31928;52.104;10.030;2022-12-31T11:36:16;99655.25;;;20.82;49.32
46199;BME280;31928;52.104;10.030;2022-12-31T11:41:34;99651.44;;;20.83;49.21
46199;BME280;31928;52.104;10.030;2022-12-31T11:47:02;99705.81;;;20.75;48.65
46199;BME280;31928;52.104;10.030;2022-12-31T11:52:24;99692.84;;;20.85;47.96
46199;BME280;31928;52.104;10.030;2022-12-31T11:57:36;99709.19;;;20.85;47.95
46199;BME280;31928;52.104;10.030;2022-12-31T12:00:13;99706.09;;;20.92;47.92
46199;BME280;31928;52.104;10.030;2022-12-31T12:02:44;99689.75;;;20.92;48.00
46199;BME280;31928;52.104;10.030;2022-12-31T12:05:16;99669.25;;;20.94;47.94
46199;BME280;31928;52.104;10.030;2022-12-31T12:07:43;99655.34;;;20.96;47.82
46199;BME280;31928;52.104;10.030;2022-12-31T12:10:18;99681.78;;;21.27;47.97
46199;BME280;31928;52.104;10.030;2022-12-31T12:12:47;99677.00;;;21.06;47.91
46199;BME280;31928;52.104;10.030;2022-12-31T12:15:22;99673.97;;;21.07;48.10
46199;BME280;31928;52.104;10.030;2022-12-31T12:17:55;99660.81;;;21.09;47.84
46199;BME280;31928;52.104;10.030;2022-12-31T12:20:30;99670.09;;;21.08;48.15
46199;BME280;31928;52.104;10.030;2022-12-31T12:23:00;99652.22;;;21.02;47.73
46199;BME280;31928;52.104;10.030;2022-12-31T12:25:40;99676.59;;;21.12;47.97
46199;BME280;31928;52.104;10.030;2022-12-31T12:28:17;99673.88;;;21.12;47.88
46199;BME280;31928;52.104;10.030;2022-12-31T12:30:51;99664.47;;;21.05;47.50
46199;BME280;31928;52.104;10.030;2022-12-31T12:33:19;99660.25;;;21.12;48.10
46199;BME280;31928;52.104;10.030;2022-12-31T12:35:46;99664.66;;;21.08;47.43
46199;BME280;31928;52.104;10.030;2022-12-31T12:38:18;99661.75;;;21.18;47.85
46199;BME280;31928;52.104;10.030;2022-12-31T12:41:00;99688.16;;;21.22;47.79
46199;BME280;31928;52.104;10.030;2022-12-31T12:43:31;99687.06;;;21.05;47.18
46199;BME280;31928;52.104;10.030;2022-12-31T12:46:00;99674.44;;;21.09;47.35
46199;BME280;31928;52.104;10.030;2022-12-31T12:48:43;99674.00;;;21.20;47.46
46199;BME280;31928;52.104;10.030;2022-12-31T12:54:02;99679.22;;;21.17;47.18
46199;BME280;31928;52.104;10.030;2022-12-31T12:56:39;99678.44;;;21.16;47.29
46199;BME280;31928;52.104;10.030;2022-12-31T13:02:10;99674.13;;;21.29;47.91
46199;BME280;31928;52.104;10.030;2022-12-31T13:04:50;99679.97;;;21.22;47.58
46199;BME280;31928;52.104;10.030;2022-12-31T13:09:59;99686.91;;;21.15;46.95
46199;BME280;31928;52.104;10.030;2022-12-31T13:12:36;99700.00;;;21.13;46.75
46199;BME280;31928;52.104;10.030;2022-12-31T13:19:03;99692.31;;;21.33;47.53
46199;BME280;31928;52.104;10.030;2022-12-31T13:24:14;99703.88;;;21.12;46.80
46199;BME280;31928;52.104;10.030;2022-12-31T13:26:47;99682.97;;;21.21;47.14
46199;BME280;31928;52.104;10.030;2022-12-31T13:29:21;99715.59;;;21.26;47.20
46199;BME280;31928;52.104;10.030;2022-12-31T13:31:50;99721.66;;;21.23;47.20
46199;BME280;31928;52.104;10.030;2022-12-31T13:34:26;99743.25;;;21.19;47.25
46199;BME280;31928;52.104;10.030;2022-12-31T13:36:57;99759.50;;;21.11;47.20
46199;BME280;31928;52.104;10.030;2022-12-31T13:39:36;99696.34;;;21.22;47.55
46199;BME280;31928;52.104;10.030;2022-12-31T13:42:08;99718.41;;;21.21;47.72
46199;BME280;31928;52.104;10.030;2022-12-31T13:44:41;99731.31;;;21.15;47.61
46199;BME280;31928;52.104;10.030;2022-12-31T13:47:43;99729.28;;;21.08;47.95
46199;BME280;31928;52.104;10.030;2022-12-31T13:52:53;99717.38;;;21.17;48.62
46199;BME280;31928;52.104;10.030;2022-12-31T13:55:32;99721.91;;;21.08;48.14
46199;BME280;31928;52.104;10.030;2022-12-31T13:58:34;99718.53;;;21.16;48.14
46199;BME280;31928;52.104;10.030;2022-12-31T14:08:58;99725.59;;;20.99;47.80
46199;BME280;31928;52.104;10.030;2022-12-31T14:14:19;99716.38;;;21.13;48.47
46199;BME280;31928;52.104;10.030;2022-12-31T14:17:15;99716.00;;;21.19;48.04
46199;BME280;31928;52.104;10.030;2022-12-31T14:25:37;99726.47;;;21.13;48.05
46199;BME280;31928;52.104;10.030;2022-12-31T14:28:13;99729.50;;;21.11;47.97
46199;BME280;31928;52.104;10.030;2022-12-31T14:30:43;99772.41;;;21.06;47.77
46199;BME280;31928;52.104;10.030;2022-12-31T14:42:23;99743.25;;;21.19;48.26
46199;BME280;31928;52.104;10.030;2022-12-31T14:45:16;99785.47;;;21.22;47.89
46199;BME280;31928;52.104;10.030;2022-12-31T14:50:26;99747.31;;;21.22;48.22
46199;BME280;31928;52.104;10.030;2022-12-31T14:55:29;99749.63;;;21.15;47.87
46199;BME280;31928;52.104;10.030;2022-12-31T14:57:57;99745.63;;;21.08;47.56
46199;BME280;31928;52.104;10.030;2022-12-31T15:00:53;99746.88;;;21.15;47.23
46199;BME280;31928;52.104;10.030;2022-12-31T15:09:22;99780.63;;;21.19;47.43
46199;BME280;31928;52.104;10.030;2022-12-31T15:14:59;99791.16;;;21.25;47.37
46199;BME280;31928;52.104;10.030;2022-12-31T15:17:43;99774.88;;;21.20;47.03
46199;BME280;31928;52.104;10.030;2022-12-31T15:20:28;99759.31;;;21.21;46.89
46199;BME280;31928;52.104;10.030;2022-12-31T15:22:57;99783.50;;;21.09;46.42
46199;BME280;31928;52.104;10.030;2022-12-31T15:25:36;99781.34;;;21.24;46.93
46199;BME280;31928;52.104;10.030;2022-12-31T15:28:20;99767.78;;;21.19;46.54
46199;BME280;31928;52.104;10.030;2022-12-31T15:30:48;99771.53;;;21.23;46.62
46199;BME280;31928;52.104;10.030;2022-12-31T15:33:26;99785.34;;;21.32;47.33
46199;BME280;31928;52.104;10.030;2022-12-31T15:35:56;99773.25;;;21.19;46.47
46199;BME280;31928;52.104;10.030;2022-12-31T15:40:59;99802.44;;;21.19;46.15
46199;BME280;31928;52.104;10.030;2022-12-31T15:46:17;99793.16;;;21.20;45.96
46199;BME280;31928;52.104;10.030;2022-12-31T15:48:46;99785.47;;;21.22;45.48
46199;BME280;31928;52.104;10.030;2022-12-31T15:51:24;99808.91;;;21.23;45.53
46199;BME280;31928;52.104;10.030;2022-12-31T15:53:53;99806.72;;;21.25;45.21
46199;BME280;31928;52.104;10.030;2022-12-31T15:56:42;99784.16;;;21.38;45.57
46199;BME280;31928;52.104;10.030;2022-12-31T15:59:16;99788.22;;;21.22;45.02
46199;BME280;31928;52.104;10.030;2022-12-31T16:01:44;99794.19;;;21.24;44.90
46199;BME280;31928;52.104;10.030;2022-12-31T16:04:40;99797.34;;;21.49;46.12
46199;BME280;31928;52.104;10.030;2022-12-31T16:07:08;99770.91;;;21.31;45.08
46199;BME280;31928;52.104;10.030;2022-12-31T16:09:36;99800.91;;;21.31;45.10
46199;BME280;31928;52.104;10.030;2022-12-31T16:12:09;99775.69;;;21.39;45.50
46199;BME280;31928;52.104;10.030;2022-12-31T16:14:39;99786.97;;;21.33;44.79
46199;BME280;31928;52.104;10.030;2022-12-31T16:19:53;99779.28;;;21.35;44.63
46199;BME280;31928;52.104;10.030;2022-12-31T16:22:34;99818.47;;;21.39;45.08
46199;BME280;31928;52.104;10.030;2022-12-31T16:25:01;99801.94;;;21.35;44.33
46199;BME280;31928;52.104;10.030;2022-12-31T16:27:49;99807.56;;;21.39;44.53
46199;BME280;31928;52.104;10.030;2022-12-31T16:30:20;99810.81;;;21.41;44.79
46199;BME280;31928;52.104;10.030;2022-12-31T16:32:48;99831.16;;;21.30;44.28
46199;BME280;31928;52.104;10.030;2022-12-31T16:35:22;99814.66;;;21.40;45.09
46199;BME280;31928;52.104;10.030;2022-12-31T16:40:35;99830.28;;;21.34;44.41
46199;BME280;31928;52.104;10.030;2022-12-31T16:43:01;99828.53;;;21.25;44.35
46199;BME280;31928;52.104;10.030;2022-12-31T16:45:31;99815.94;;;21.29;44.51
46199;BME280;31928;52.104;10.030;2022-12-31T16:48:05;99813.41;;;21.32;44.88
46199;BME280;31928;52.104;10.030;2022-12-31T16:50:49;99819.16;;;21.31;44.79
46199;BME280;31928;52.104;10.030;2022-12-31T16:53:20;99808.25;;;21.31;44.61
46199;BME280;31928;52.104;10.030;2022-12-31T16:55:56;99815.03;;;21.33;44.98
46199;BME280;31928;52.104;10.030;2022-12-31T16:58:28;99820.84;;;21.27;44.78